Skip Navigation LinksHome page > Weather > Current weather Skip Navigation Links

Current Weather

Bom Jesus Da Lapa, Brazil

For information only: do not use for flight planning or navigation.
Latest weather
Observation time Thursday, October 30, 2014 10:00 AM BRST
Local time Thursday, October 30, 2014 10:55 AM BRST
Flight conditions Visual Meteorological Conditions
Winds
Wind speed calm
Visibility 6.2 mi.
Sky condition
Ceiling 10,000 ft. broken clouds
Cloud layer few clouds 700 ft.
Cloud layer broken clouds 10,000 ft.
Temperature 77°F
Dewpoint 70°F
Altimeter 30.00 in.Hg
Derived measurements
Relative humidity 79%
Heat index 77°F
Density altitude 2845 ft.
METAR SBLP 301200Z 00000KT 9999 FEW007 BKN100 25/21 Q1016

Settings

Location code

InnerDrive.Weather 4.0.5399.0 Release CLR 4.0.30319.34014
Copyright ©2014 Inner Drive Technology. All rights reserved. Portions Copyright ©1986-2014 David Braverman.

Find weather

Site navigation


Skip Navigation Links

Place info

Page info

PayPal - The safer, easier way to pay online!

Return home.

Copyright ©2014 Inner Drive Technology. Purveyors of fine, hand-crafted computer software. Page printed 2014-10-30T12:55:40 UTC.